Terminal Aerodrome Forecast
Issued by NWS Shreveport, LA

Home | Current Version | Previous Version | Text Only | Print | Product List | Glossary On
Versions: 1 2 3 4 5 6 7 8 9 10 11 12 13 14 15 16 17 18
000
FTUS44 KSHV 251700
TAFSHV
TAF
KSHV 251720Z 2518/2618 18011G16KT P6SM FEW250
     FM252200 17012KT P6SM SCT250
     FM260300 17009KT P6SM SCT250
     FM261000 16006KT P6SM OVC025
     FM261600 15007KT P6SM -SHRA OVC025=

USA.gov is the U.S. government's official web portal to all federal, state and local government web resources and services.